createdAt,value
2023-02-14T04:53:38.310Z,21.41
2023-02-14T04:54:38.304Z,21.38
2023-02-14T04:55:38.311Z,21.37
2023-02-14T04:56:38.275Z,21.37
2023-02-14T04:57:38.283Z,21.37
2023-02-14T04:58:38.257Z,21.38
2023-02-14T04:59:38.248Z,21.39
2023-02-14T05:00:38.261Z,21.37
2023-02-14T05:01:38.266Z,21.37
2023-02-14T05:02:38.242Z,21.36
2023-02-14T05:03:38.216Z,21.37
2023-02-14T05:04:38.211Z,21.38
2023-02-14T05:05:38.205Z,21.39
2023-02-14T05:06:38.191Z,21.37
2023-02-14T05:07:38.192Z,21.37
2023-02-14T05:08:38.173Z,21.36
2023-02-14T05:09:38.154Z,21.38
2023-02-14T05:10:38.156Z,21.39
2023-02-14T05:11:38.129Z,21.39
2023-02-14T05:12:38.112Z,21.37
2023-02-14T05:13:38.117Z,21.36
2023-02-14T05:14:38.091Z,21.37
2023-02-14T05:15:38.587Z,21.39
2023-02-14T05:16:38.146Z,21.39
2023-02-14T05:17:38.063Z,21.39
2023-02-14T05:18:38.085Z,21.37
2023-02-14T05:19:38.069Z,21.35
2023-02-14T05:20:38.023Z,21.36
2023-02-14T05:21:38.033Z,21.37
2023-02-14T05:22:38.006Z,21.38
2023-02-14T05:23:37.987Z,21.38
2023-02-14T05:24:37.970Z,21.37
2023-02-14T05:25:37.957Z,21.36
2023-02-14T05:26:37.936Z,21.37
2023-02-14T05:27:37.931Z,21.38
2023-02-14T05:28:37.907Z,21.39
2023-02-14T05:29:37.905Z,21.39
2023-02-14T05:30:38.019Z,21.36
2023-02-14T05:31:37.921Z,21.36
2023-02-14T05:32:37.830Z,21.36
2023-02-14T05:33:37.825Z,21.37
2023-02-14T05:34:37.813Z,21.39
2023-02-14T05:35:37.795Z,21.38
2023-02-14T05:36:37.781Z,21.37
2023-02-14T05:37:37.768Z,21.36
2023-02-14T05:38:37.753Z,21.36
2023-02-14T05:39:37.740Z,21.36
2023-02-14T05:40:37.721Z,21.38
2023-02-14T05:41:39.379Z,21.37
2023-02-14T05:42:37.697Z,21.36
2023-02-14T07:46:36.042Z,21.40
2023-02-14T07:47:35.972Z,21.39
2023-02-14T07:48:35.936Z,21.40
2023-02-14T07:49:35.938Z,21.41
2023-02-14T07:50:35.917Z,21.43
2023-02-14T07:51:35.905Z,21.45
2023-02-14T07:52:35.907Z,21.45
2023-02-14T07:53:35.909Z,21.44
2023-02-14T07:54:35.919Z,21.46
2023-02-14T07:55:35.878Z,21.47
2023-02-14T07:56:35.884Z,21.51
2023-02-14T07:57:35.864Z,21.54
2023-02-14T07:58:35.841Z,21.54
2023-02-14T07:59:35.847Z,21.53
2023-02-14T08:00:35.832Z,21.55
2023-02-14T08:01:35.899Z,21.56
2023-02-14T08:02:35.798Z,21.59
2023-02-14T08:03:35.787Z,21.62
2023-02-14T08:04:35.822Z,21.59
2023-02-14T08:05:35.758Z,21.60
2023-02-14T08:06:35.758Z,21.61
2023-02-14T08:07:35.756Z,21.65
2023-02-14T08:08:35.758Z,21.68
2023-02-14T08:09:35.729Z,21.69
2023-02-14T08:10:35.697Z,21.69
2023-02-14T08:11:35.675Z,21.68
2023-02-14T08:12:35.646Z,21.69
2023-02-14T08:13:35.627Z,21.72
2023-02-14T08:14:35.608Z,21.74
2023-02-14T08:15:35.595Z,21.74
2023-02-14T08:16:35.644Z,21.74
2023-02-14T08:18:35.538Z,21.74
2023-02-14T08:19:35.536Z,21.76
2023-02-14T08:20:35.503Z,21.77
2023-02-14T08:21:35.505Z,21.77
2023-02-14T08:22:35.475Z,21.76
2023-02-14T08:23:35.446Z,21.78
2023-02-14T08:24:35.475Z,21.79
2023-02-14T08:25:35.417Z,21.80
2023-02-14T08:26:35.416Z,21.80
2023-02-14T08:27:35.383Z,21.78
2023-02-14T08:28:35.408Z,21.78
2023-02-14T08:29:35.356Z,21.79
2023-02-14T08:30:35.358Z,21.81
2023-02-14T08:31:36.639Z,21.84
2023-02-14T08:32:35.492Z,21.83
2023-02-14T08:33:35.289Z,21.83
2023-02-14T08:34:35.266Z,21.86
2023-02-14T08:35:35.259Z,21.87
2023-02-14T08:36:35.252Z,21.89
2023-02-14T08:37:35.222Z,21.91
2023-02-14T08:38:35.197Z,21.91
2023-02-14T08:39:35.273Z,21.92
2023-02-14T08:40:35.296Z,21.93
2023-02-14T08:41:35.164Z,21.95
2023-02-14T08:42:35.266Z,21.97
2023-02-14T08:43:35.087Z,21.97
2023-02-14T08:44:35.107Z,21.97
2023-02-14T08:45:35.114Z,21.97
2023-02-14T08:46:35.172Z,21.99
2023-02-14T08:47:35.018Z,22.01
2023-02-14T08:48:37.367Z,22.02
2023-02-14T08:49:34.981Z,22.02
2023-02-14T08:50:34.992Z,22.02
2023-02-14T08:51:34.986Z,22.02
2023-02-14T08:52:34.919Z,22.04
2023-02-14T08:53:34.909Z,22.06
2023-02-14T08:54:34.880Z,22.06
2023-02-14T08:55:34.884Z,22.07
2023-02-14T08:56:34.841Z,22.07
2023-02-14T08:57:34.820Z,22.08
2023-02-14T08:58:34.810Z,22.10
2023-02-14T08:59:34.792Z,22.11
2023-02-14T09:00:34.855Z,22.10
2023-02-14T09:01:34.750Z,22.12
2023-02-14T09:02:34.770Z,22.13
2023-02-14T09:03:37.223Z,22.15
2023-02-14T09:04:34.735Z,22.16
2023-02-14T09:05:34.710Z,22.17
2023-02-14T09:06:34.659Z,22.17
2023-02-14T09:07:34.632Z,22.17
2023-02-14T09:08:34.629Z,22.19
2023-02-14T09:09:34.600Z,22.21
2023-02-14T09:10:34.619Z,22.22
2023-02-14T09:11:34.555Z,22.22
2023-02-14T09:12:34.540Z,22.22
2023-02-14T09:13:34.494Z,22.23
2023-02-14T09:14:34.472Z,22.25
2023-02-14T09:15:34.479Z,22.26
2023-02-14T09:16:34.589Z,22.27
2023-02-14T09:17:34.436Z,22.26
2023-02-14T09:18:34.422Z,22.26
2023-02-14T09:19:34.422Z,22.28
2023-02-14T09:20:34.340Z,22.30
2023-02-14T09:21:34.380Z,22.31
2023-02-14T09:22:34.322Z,22.31
2023-02-14T09:23:34.240Z,22.32
2023-02-14T09:24:34.213Z,22.32
2023-02-14T09:25:34.180Z,22.34
2023-02-14T09:26:34.152Z,22.34
2023-02-14T09:27:34.118Z,22.34
2023-02-14T09:28:34.081Z,22.34
2023-02-14T09:29:34.059Z,22.34
2023-02-14T09:30:34.057Z,22.35
2023-02-14T09:31:34.098Z,22.36
2023-02-14T09:32:33.952Z,22.36
2023-02-14T09:33:33.907Z,22.36
2023-02-14T09:34:33.882Z,22.36
2023-02-14T09:35:33.850Z,22.38
2023-02-14T09:36:33.819Z,22.39
2023-02-14T09:37:33.781Z,22.40
2023-02-14T09:38:33.750Z,22.39
2023-02-14T09:39:33.723Z,22.41
2023-02-14T09:40:33.686Z,22.41
2023-02-14T09:41:33.658Z,22.42
2023-02-14T09:42:33.672Z,22.43
2023-02-14T09:43:33.586Z,22.44
2023-02-14T09:44:33.564Z,22.43
2023-02-14T09:45:33.572Z,22.44
2023-02-14T09:46:33.491Z,22.44
2023-02-14T09:47:33.454Z,22.44
2023-02-14T09:48:33.435Z,22.46
2023-02-14T09:49:33.594Z,22.46
2023-02-14T09:50:33.360Z,22.46
2023-02-14T09:51:33.356Z,22.47
2023-02-14T09:52:33.312Z,22.47
2023-02-14T09:53:33.276Z,22.47
2023-02-14T09:54:33.251Z,22.48
2023-02-14T09:55:33.220Z,22.50
2023-02-14T09:56:42.729Z,22.50
2023-02-14T09:58:33.134Z,22.51
2023-02-14T09:59:33.105Z,22.51
2023-02-14T10:00:33.067Z,22.52
2023-02-14T10:01:33.117Z,22.52
2023-02-14T10:02:33.048Z,22.52
2023-02-14T10:03:32.943Z,22.53
2023-02-14T10:04:32.908Z,22.53
2023-02-14T10:05:32.868Z,22.54
2023-02-14T10:06:32.850Z,22.54
2023-02-14T10:07:32.808Z,22.55
2023-02-14T10:08:32.781Z,22.54
2023-02-14T10:09:32.739Z,22.55
2023-02-14T10:10:32.710Z,22.56
2023-02-14T10:11:32.672Z,22.56
2023-02-14T10:12:32.639Z,22.57
2023-02-14T10:13:32.616Z,22.57
2023-02-14T10:14:32.572Z,22.58
2023-02-14T10:15:32.566Z,22.58
2023-02-14T10:16:32.595Z,22.59
2023-02-14T10:17:32.458Z,22.60
2023-02-14T10:18:32.417Z,22.60
2023-02-14T10:19:32.380Z,22.60
2023-02-14T10:20:32.354Z,22.61
2023-02-14T10:21:32.306Z,22.61
2023-02-14T10:22:32.309Z,22.62
2023-02-14T10:23:32.248Z,22.62
2023-02-14T10:24:32.229Z,22.62
2023-02-14T10:25:32.184Z,22.64
2023-02-14T10:26:32.129Z,22.64
2023-02-14T10:27:32.144Z,22.64
2023-02-14T10:28:32.074Z,22.64
2023-02-14T10:29:32.030Z,22.64
2023-02-14T10:52:31.240Z,22.74
2023-02-14T10:53:31.209Z,22.74
2023-02-14T10:54:31.200Z,22.74
2023-02-14T10:55:32.851Z,22.75
2023-02-14T10:56:31.103Z,22.75
2023-02-14T10:57:31.074Z,22.75
2023-02-14T10:58:31.043Z,22.76
2023-02-14T10:59:31.011Z,22.76
2023-02-14T13:48:26.151Z,22.96
2023-02-14T13:49:26.125Z,22.96
2023-02-14T13:50:26.094Z,22.98
2023-02-14T13:51:26.071Z,22.98
2023-02-14T13:52:26.026Z,22.99
2023-02-14T13:53:25.995Z,22.99
2023-02-14T13:54:25.973Z,23.00
2023-02-14T13:55:25.950Z,23.01
2023-02-14T13:56:25.912Z,23.01
2023-02-14T13:57:25.879Z,23.02
2023-02-14T13:58:25.849Z,23.03
2023-02-14T13:59:25.831Z,23.04
2023-02-14T14:00:25.803Z,23.05
2023-02-14T14:01:25.784Z,23.05
2023-02-14T14:02:28.237Z,23.06
2023-02-14T14:03:25.715Z,23.06
2023-02-14T14:04:25.696Z,23.06
2023-02-14T14:05:25.656Z,23.07
2023-02-14T14:06:25.668Z,23.07
2023-02-14T14:07:25.608Z,23.06
2023-02-14T14:52:24.170Z,23.10
2023-02-14T14:53:24.126Z,23.10
2023-02-14T14:54:24.091Z,23.09
2023-02-14T14:55:24.067Z,23.07
2023-02-14T14:56:24.035Z,23.05
2023-02-14T14:57:24.009Z,23.05
2023-02-14T14:58:23.992Z,23.03
2023-02-14T14:59:23.965Z,23.00
2023-02-14T15:00:23.927Z,23.00
2023-02-14T15:01:23.935Z,22.98
2023-02-14T15:02:23.901Z,22.97
2023-02-14T15:03:23.831Z,22.96
2023-02-14T15:04:23.850Z,22.95
2023-02-14T15:05:23.753Z,22.94
2023-02-14T15:06:23.735Z,22.93
2023-02-14T15:07:23.713Z,22.92
2023-02-14T15:08:23.691Z,22.91
2023-02-14T15:09:24.213Z,22.91
2023-02-14T15:10:23.617Z,22.90
2023-02-14T15:11:23.590Z,22.89
2023-02-14T15:12:23.549Z,22.88
2023-02-14T15:13:23.530Z,22.87
2023-02-14T15:14:23.486Z,22.87
2023-02-14T15:15:23.488Z,22.85
2023-02-14T15:16:23.502Z,22.85
2023-02-14T15:17:23.404Z,22.84
2023-02-14T15:18:23.388Z,22.83
2023-02-14T15:19:23.373Z,22.82
2023-02-14T15:20:23.335Z,22.82
2023-02-14T15:21:23.319Z,22.81
2023-02-14T15:22:23.271Z,22.81
2023-02-14T15:23:23.270Z,22.80
2023-02-14T15:24:23.227Z,22.80
2023-02-14T15:25:23.206Z,22.79
2023-02-14T15:26:23.189Z,22.79
2023-02-14T15:27:23.155Z,22.77
2023-02-14T15:28:23.142Z,22.77
2023-02-14T15:29:23.094Z,22.77
2023-02-14T15:30:23.098Z,22.76
2023-02-14T15:31:23.133Z,22.76
2023-02-14T15:32:23.005Z,22.77
2023-02-14T15:33:23.007Z,22.77
2023-02-14T15:34:22.945Z,22.77
2023-02-14T15:35:22.939Z,22.77
2023-02-14T15:36:22.912Z,22.75
2023-02-14T15:37:22.872Z,22.75
2023-02-14T15:38:22.839Z,22.75
2023-02-14T15:39:22.805Z,22.74
2023-02-14T15:40:22.774Z,22.75
2023-02-14T15:41:22.751Z,22.74
2023-02-14T15:42:22.733Z,22.75
2023-02-14T15:43:22.694Z,22.74
2023-02-14T15:44:22.682Z,22.74
2023-02-14T15:45:22.659Z,22.74
2023-02-14T15:46:22.661Z,22.74
2023-02-14T15:47:22.588Z,22.74
2023-02-14T15:48:22.547Z,22.73
2023-02-14T15:49:22.563Z,22.73
2023-02-14T15:50:22.489Z,22.72
2023-02-14T15:51:22.485Z,22.70
2023-02-14T15:52:22.435Z,22.70
2023-02-14T15:53:22.442Z,22.70
2023-02-14T15:54:22.399Z,22.71
2023-02-14T15:55:22.353Z,22.70
2023-02-14T15:56:22.317Z,22.70
2023-02-14T15:57:22.284Z,22.70
2023-02-14T15:58:22.261Z,22.70
2023-02-14T15:59:22.241Z,22.69
2023-02-14T16:00:22.199Z,22.68
2023-02-14T16:01:22.297Z,22.68
2023-02-14T16:02:22.194Z,22.67
2023-02-14T16:03:22.105Z,22.67
2023-02-14T16:04:22.084Z,22.68
2023-02-14T16:05:22.051Z,22.68
2023-02-14T16:06:22.043Z,22.66
2023-02-14T16:07:21.989Z,22.66
2023-02-14T16:08:21.985Z,22.65
2023-02-14T16:09:21.947Z,22.65
2023-02-14T16:10:21.925Z,22.65
2023-02-14T16:11:21.888Z,22.64
2023-02-14T16:12:21.861Z,22.62
2023-02-14T16:13:21.831Z,22.61
2023-02-14T16:14:21.802Z,22.61
2023-02-14T16:15:21.791Z,22.60
2023-02-14T16:16:21.774Z,22.61
2023-02-14T16:17:21.721Z,22.60
2023-02-14T16:18:21.701Z,22.60
2023-02-14T16:19:21.665Z,22.59
2023-02-14T16:20:21.635Z,22.57
2023-02-14T16:21:21.664Z,22.57
2023-02-14T16:22:21.609Z,22.57
2023-02-14T16:23:21.573Z,22.56
2023-02-14T16:24:21.530Z,22.55
2023-02-14T16:25:21.500Z,22.54
2023-02-14T16:26:21.463Z,22.54
2023-02-14T16:27:21.437Z,22.52
2023-02-14T16:28:21.413Z,22.52
2023-02-14T16:29:21.401Z,22.52
2023-02-14T16:30:22.141Z,22.51
2023-02-14T16:31:21.384Z,22.49
2023-02-14T16:32:21.469Z,22.48
2023-02-14T16:33:21.276Z,22.48
2023-02-14T16:34:21.237Z,22.46
2023-02-14T16:35:21.264Z,22.47
2023-02-14T16:36:21.179Z,22.47
2023-02-14T16:37:21.161Z,22.47
2023-02-14T16:38:21.155Z,22.47
2023-02-14T16:39:21.111Z,22.46
2023-02-14T16:40:21.085Z,22.46
2023-02-14T16:41:21.061Z,22.45
2023-02-14T16:42:21.048Z,22.45
2023-02-14T16:43:21.032Z,22.45
2023-02-14T18:22:18.306Z,22.14
2023-02-14T18:23:18.273Z,22.13
2023-02-14T18:24:18.246Z,22.13
2023-02-14T18:25:18.218Z,22.14
2023-02-14T18:26:18.187Z,22.13
2023-02-14T18:27:18.174Z,22.12
2023-02-14T18:28:18.148Z,22.11
2023-02-14T18:29:18.109Z,22.12
2023-02-14T18:30:18.398Z,22.13
2023-02-14T18:31:18.185Z,22.11
2023-02-14T18:32:18.072Z,22.10
2023-02-14T18:33:18.034Z,22.10
2023-02-14T18:34:18.007Z,22.10
2023-02-14T18:37:17.913Z,22.09
2023-02-14T18:38:17.912Z,22.08
2023-02-14T18:39:17.883Z,22.08
2023-02-14T18:40:17.861Z,22.08
2023-02-14T18:41:17.847Z,22.08
2023-02-14T18:42:17.828Z,22.08
2023-02-14T18:43:17.814Z,22.06
2023-02-14T18:45:17.830Z,22.07
2023-02-14T18:46:17.728Z,22.05
2023-02-14T18:47:17.704Z,22.07
2023-02-14T18:48:17.691Z,22.05
2023-02-14T18:49:17.662Z,22.04
2023-02-14T18:50:17.636Z,22.03
2023-02-14T18:51:17.613Z,22.04
2023-02-14T18:52:17.611Z,22.04
2023-02-14T18:53:17.571Z,22.04
2023-02-14T18:54:17.544Z,22.02
2023-02-14T18:55:17.528Z,22.02
2023-02-14T18:56:17.510Z,22.03
2023-02-14T18:57:17.477Z,22.03
2023-02-14T18:58:17.469Z,22.03
2023-02-14T18:59:17.476Z,22.03
2023-02-14T19:00:17.429Z,22.01
2023-02-14T19:01:17.480Z,22.01
2023-02-14T19:02:17.428Z,22.01
2023-02-14T19:03:17.379Z,22.01
2023-02-14T19:04:17.352Z,22.02
2023-02-14T19:05:17.341Z,22.01
2023-02-14T19:06:17.313Z,22.00
2023-02-14T19:07:17.290Z,22.00
2023-02-14T19:08:17.291Z,21.99
2023-02-14T19:09:17.248Z,22.00
2023-02-14T19:10:17.237Z,22.00
2023-02-14T19:11:17.222Z,21.99
2023-02-14T19:12:17.181Z,21.98
2023-02-14T19:13:18.013Z,21.99
2023-02-14T19:14:17.149Z,21.99
2023-02-14T19:15:17.120Z,22.00
2023-02-14T19:16:17.116Z,21.98
2023-02-14T19:17:17.076Z,21.98
2023-02-14T19:18:17.055Z,21.98
2023-02-14T19:19:17.054Z,21.98
2023-02-14T19:20:17.025Z,21.99
2023-02-14T19:21:16.992Z,21.98
2023-02-14T19:22:16.978Z,21.96
2023-02-14T19:23:16.963Z,21.97
2023-02-14T19:24:16.934Z,21.96
2023-02-14T19:25:16.920Z,21.97
2023-02-14T19:26:16.901Z,21.98
2023-02-14T19:27:16.889Z,21.97
2023-02-14T19:28:16.872Z,21.95
2023-02-14T19:29:16.845Z,21.95
2023-02-14T19:30:16.876Z,21.96
2023-02-14T19:31:16.901Z,21.97
2023-02-14T19:32:16.794Z,21.97
2023-02-14T19:33:16.756Z,21.94
2023-02-14T19:34:16.729Z,21.94
2023-02-14T19:35:16.713Z,21.94
2023-02-14T19:36:16.682Z,21.94
2023-02-14T19:37:16.675Z,21.95
2023-02-14T19:38:16.642Z,21.94
2023-02-14T19:39:16.613Z,21.93
2023-02-14T19:40:16.599Z,21.93
2023-02-14T19:41:16.611Z,21.93
2023-02-14T19:42:16.565Z,21.94
2023-02-14T19:43:16.533Z,21.95
2023-02-14T19:44:16.521Z,21.93
2023-02-14T19:45:16.495Z,21.91
2023-02-14T19:46:16.580Z,21.91
2023-02-14T19:47:29.022Z,21.91
2023-02-14T19:48:16.411Z,21.91
2023-02-14T19:49:16.421Z,21.92
2023-02-14T19:50:16.376Z,21.90
2023-02-14T19:51:16.393Z,21.90
2023-02-14T19:52:25.657Z,21.90
2023-02-14T19:53:17.320Z,21.90
2023-02-14T19:54:16.313Z,21.91
2023-02-14T19:55:16.278Z,21.90
2023-02-14T19:56:16.295Z,21.89
2023-02-14T19:57:16.237Z,21.89
2023-02-14T19:58:16.217Z,21.90
2023-02-14T19:59:16.206Z,21.90
2023-02-14T20:00:16.211Z,21.90
2023-02-14T20:01:16.207Z,21.89
2023-02-14T20:02:16.181Z,21.88
2023-02-14T20:03:16.105Z,21.89
2023-02-14T20:04:16.100Z,21.89
2023-02-14T20:05:16.061Z,21.90
2023-02-14T20:06:16.039Z,21.89
2023-02-14T20:07:16.022Z,21.87
2023-02-14T20:08:15.984Z,21.87
2023-02-14T20:09:15.959Z,21.87
2023-02-14T20:10:15.944Z,21.88
2023-02-14T20:11:15.913Z,21.88
2023-02-14T20:12:15.914Z,21.87
2023-02-14T20:13:15.921Z,21.87
2023-02-14T20:14:15.914Z,21.86
2023-02-14T20:15:15.865Z,21.87
2023-02-14T20:16:15.847Z,21.87
2023-02-14T20:17:15.794Z,21.88
2023-02-14T20:18:15.750Z,21.86
2023-02-14T20:19:15.769Z,21.85
2023-02-14T20:20:15.714Z,21.86
2023-02-14T20:21:15.706Z,21.86
2023-02-14T20:22:15.697Z,21.87
2023-02-14T20:23:15.649Z,21.87
2023-02-14T20:24:15.636Z,21.85
2023-02-14T20:25:15.627Z,21.85
2023-02-14T20:26:15.591Z,21.84
2023-02-14T20:27:15.557Z,21.85
2023-02-14T20:28:15.531Z,21.86
2023-02-14T20:29:15.520Z,21.85
2023-02-14T20:30:15.520Z,21.84
2023-02-14T20:31:15.626Z,21.84
2023-02-14T20:32:15.438Z,21.84
2023-02-14T20:33:15.438Z,21.85
2023-02-14T20:34:15.399Z,21.85
2023-02-14T20:35:15.414Z,21.84
2023-02-14T20:36:15.363Z,21.84
2023-02-14T20:37:15.421Z,21.83
2023-02-14T20:38:15.355Z,21.84
2023-02-14T20:39:15.309Z,21.85
2023-02-14T20:40:16.124Z,21.84
2023-02-14T20:41:15.281Z,21.83
2023-02-14T20:42:15.223Z,21.83
2023-02-14T20:43:15.298Z,21.83
2023-02-14T20:44:15.281Z,21.84
2023-02-14T20:45:15.263Z,21.84
2023-02-14T20:46:15.265Z,21.83
2023-02-14T20:47:15.243Z,21.82
2023-02-14T20:48:15.216Z,21.82
2023-02-14T20:49:15.218Z,21.82
2023-02-14T20:50:15.195Z,21.83
2023-02-14T20:51:15.139Z,21.84
2023-02-14T20:52:15.160Z,21.82
2023-02-14T20:53:15.128Z,21.81
2023-02-14T20:54:15.055Z,21.81
2023-02-14T20:55:15.012Z,21.82
2023-02-14T20:56:14.974Z,21.83
2023-02-14T20:57:14.980Z,21.82
2023-02-14T20:58:14.919Z,21.82
2023-02-14T20:59:14.882Z,21.81
2023-02-14T21:00:14.814Z,21.81
2023-02-14T21:01:14.846Z,21.82
2023-02-14T21:02:14.756Z,21.83
2023-02-14T21:03:14.763Z,21.81
2023-02-14T21:04:14.698Z,21.80
2023-02-14T21:05:14.706Z,21.80
2023-02-14T21:06:14.663Z,21.81
2023-02-14T21:07:14.660Z,21.81
2023-02-14T21:08:14.602Z,21.82
2023-02-14T21:09:14.576Z,21.80
2023-02-14T21:10:14.570Z,21.80
2023-02-14T21:11:14.545Z,21.81
2023-02-14T21:12:14.507Z,21.80
2023-02-14T21:13:14.464Z,21.81
2023-02-14T21:14:14.447Z,21.81
2023-02-14T21:15:14.420Z,21.79
2023-02-14T21:16:14.398Z,21.79
2023-02-14T21:17:14.381Z,21.79
2023-02-14T21:18:14.353Z,21.79
2023-02-14T21:19:14.352Z,21.81
2023-02-14T21:20:14.289Z,21.79
2023-02-14T21:21:14.266Z,21.79
2023-02-14T21:22:14.271Z,21.79
2023-02-14T21:23:14.203Z,21.79
2023-02-14T21:24:14.173Z,21.80
2023-02-14T21:25:14.157Z,21.81
2023-02-14T21:26:14.128Z,21.79
2023-02-14T21:27:14.114Z,21.78
2023-02-14T21:28:14.083Z,21.79
2023-02-14T21:29:14.058Z,21.80
2023-02-14T21:30:14.057Z,21.79
2023-02-14T21:31:14.178Z,21.79
2023-02-14T21:32:14.103Z,21.79
2023-02-14T21:33:13.983Z,21.79
2023-02-14T21:34:13.950Z,21.79
2023-02-14T21:35:13.933Z,21.80
2023-02-14T21:36:13.929Z,21.80
2023-02-14T21:37:13.889Z,21.79
2023-02-14T21:38:13.857Z,21.77
2023-02-14T21:39:13.837Z,21.77
2023-02-14T21:40:13.808Z,21.78
2023-02-14T21:41:13.809Z,21.78
2023-02-14T21:42:13.763Z,21.79
2023-02-14T21:43:13.748Z,21.77
2023-02-14T21:44:13.727Z,21.77
2023-02-14T21:45:13.704Z,21.76
2023-02-14T21:46:13.745Z,21.77
2023-02-14T21:47:13.677Z,21.78
2023-02-14T21:48:13.647Z,21.77
2023-02-14T21:49:13.655Z,21.76
2023-02-14T21:50:13.627Z,21.76
2023-02-14T21:51:13.603Z,21.75
2023-02-14T21:52:13.584Z,21.77
2023-02-14T21:53:13.562Z,21.77
2023-02-14T21:54:13.542Z,21.76
2023-02-14T21:55:13.532Z,21.76
2023-02-14T21:56:13.509Z,21.76
2023-02-14T21:57:13.490Z,21.76
2023-02-14T21:58:13.458Z,21.77
2023-02-14T21:59:13.447Z,21.77
2023-02-14T22:00:13.420Z,21.76
2023-02-14T22:01:13.433Z,21.74
2023-02-14T22:02:13.390Z,21.75
2023-02-14T22:03:13.354Z,21.75
2023-02-14T22:04:13.358Z,21.76
2023-02-14T22:05:13.318Z,21.77
2023-02-14T22:06:13.289Z,21.75
2023-02-14T22:07:13.280Z,21.75
2023-02-14T22:08:13.259Z,21.75
2023-02-14T22:09:13.239Z,21.76
2023-02-14T22:10:13.200Z,21.77
2023-02-14T22:11:13.189Z,21.76
2023-02-14T22:12:13.174Z,21.75
2023-02-14T22:13:13.133Z,21.75
2023-02-14T22:14:14.702Z,21.75
2023-02-14T22:15:13.081Z,21.75
2023-02-14T22:16:13.114Z,21.76
2023-02-14T22:17:13.036Z,21.75
2023-02-14T22:18:12.996Z,21.75
2023-02-14T22:19:12.977Z,21.75
2023-02-14T22:20:12.950Z,21.75
2023-02-14T22:21:12.920Z,21.75
2023-02-14T22:22:12.898Z,21.75
2023-02-14T22:23:12.878Z,21.72
2023-02-14T22:24:12.846Z,21.73
2023-02-14T22:25:12.833Z,21.73
2023-02-14T22:26:12.808Z,21.73
2023-02-14T22:27:12.838Z,21.75
2023-02-14T22:28:12.745Z,21.73
2023-02-14T22:29:12.724Z,21.72
2023-02-14T22:30:12.787Z,21.71
2023-02-14T22:31:12.795Z,21.72
2023-02-14T22:32:12.777Z,21.73
2023-02-14T22:33:12.643Z,21.74
2023-02-14T22:34:12.642Z,21.73
2023-02-14T22:35:12.611Z,21.72
2023-02-14T22:36:12.587Z,21.72
2023-02-14T22:37:12.596Z,21.72
2023-02-14T22:38:12.955Z,21.73
2023-02-14T22:39:12.520Z,21.74
2023-02-14T22:40:12.495Z,21.72
2023-02-14T22:41:12.468Z,21.72
2023-02-14T22:42:12.458Z,21.72
2023-02-14T22:43:12.430Z,21.72
2023-02-14T22:44:12.413Z,21.73
2023-02-14T22:45:12.392Z,21.72
2023-02-14T22:46:12.442Z,21.72
2023-02-14T22:47:12.358Z,21.72
2023-02-14T22:48:12.331Z,21.72
2023-02-14T22:49:12.303Z,21.72
2023-02-14T22:50:12.291Z,21.74
2023-02-14T22:51:12.264Z,21.71
2023-02-14T22:52:12.242Z,21.71
2023-02-14T22:53:12.237Z,21.70
2023-02-14T22:54:12.201Z,21.71
2023-02-14T22:55:12.187Z,21.71
2023-02-14T22:56:12.156Z,21.72
2023-02-14T22:57:12.134Z,21.69
2023-02-14T22:58:12.106Z,21.69
2023-02-14T22:59:12.082Z,21.69
2023-02-14T23:00:12.058Z,21.70
2023-02-14T23:01:12.041Z,21.71
2023-02-14T23:02:12.024Z,21.71
2023-02-14T23:03:12.025Z,21.70
2023-02-14T23:04:11.999Z,21.70
2023-02-14T23:05:11.974Z,21.71
2023-02-14T23:06:11.945Z,21.71
2023-02-14T23:07:11.986Z,21.72
2023-02-14T23:08:11.920Z,21.71
2023-02-14T23:09:11.907Z,21.70
2023-02-14T23:10:11.887Z,21.70
2023-02-14T23:11:11.880Z,21.70
2023-02-14T23:12:11.900Z,21.71
2023-02-14T23:13:11.833Z,21.72
2023-02-14T23:14:11.807Z,21.69
2023-02-14T23:15:11.790Z,21.69
2023-02-14T23:16:11.785Z,21.69
2023-02-14T23:17:11.755Z,21.70
2023-02-14T23:18:11.728Z,21.71
2023-02-14T23:19:11.709Z,21.70
2023-02-14T23:20:11.683Z,21.68
2023-02-14T23:21:11.668Z,21.67
2023-02-14T23:22:11.630Z,21.67
2023-02-14T23:23:11.632Z,21.68
2023-02-14T23:24:11.598Z,21.69
2023-02-14T23:25:11.570Z,21.69
2023-02-14T23:26:11.522Z,21.67
2023-02-14T23:27:11.500Z,21.68
2023-02-14T23:28:11.487Z,21.69
2023-02-14T23:29:11.497Z,21.69
2023-02-14T23:30:11.476Z,21.70
2023-02-14T23:31:11.470Z,21.68
2023-02-14T23:32:11.420Z,21.67
2023-02-14T23:33:11.371Z,21.67
2023-02-14T23:34:11.356Z,21.68
2023-02-14T23:35:11.346Z,21.68
2023-02-14T23:36:11.311Z,21.69
2023-02-14T23:37:11.293Z,21.67
2023-02-14T23:38:11.250Z,21.67
2023-02-14T23:39:11.237Z,21.67
2023-02-14T23:40:11.218Z,21.68
2023-02-14T23:41:11.182Z,21.68
2023-02-14T23:42:11.156Z,21.67
2023-02-14T23:43:11.145Z,21.66
2023-02-14T23:44:11.119Z,21.66
2023-02-14T23:45:11.092Z,21.67
2023-02-14T23:46:11.113Z,21.68
2023-02-14T23:47:11.034Z,21.68
2023-02-14T23:48:11.006Z,21.66
